sensor_id;sensor_type;location;lat;lon;timestamp;P1;durP1;ratioP1;P2;durP2;ratioP2
34144;SDS011;69555;53.014;8.886;2024-03-02T00:00:04;33.50;;;17.08;;
34144;SDS011;69555;53.014;8.886;2024-03-02T00:02:44;29.48;;;17.88;;
34144;SDS011;69555;53.014;8.886;2024-03-02T00:05:12;30.60;;;16.70;;
34144;SDS011;69555;53.014;8.886;2024-03-02T00:10:11;32.80;;;16.98;;
34144;SDS011;69555;53.014;8.886;2024-03-02T00:18:10;34.58;;;17.65;;
34144;SDS011;69555;53.014;8.886;2024-03-02T00:20:39;33.20;;;17.77;;
34144;SDS011;69555;53.014;8.886;2024-03-02T00:23:07;31.08;;;17.02;;
34144;SDS011;69555;53.014;8.886;2024-03-02T00:26:08;28.55;;;16.00;;
34144;SDS011;69555;53.014;8.886;2024-03-02T00:28:29;30.92;;;16.25;;
34144;SDS011;69555;53.014;8.886;2024-03-02T00:31:04;28.20;;;16.00;;
34144;SDS011;69555;53.014;8.886;2024-03-02T00:36:03;26.98;;;17.25;;
34144;SDS011;69555;53.014;8.886;2024-03-02T00:38:31;29.67;;;17.48;;
34144;SDS011;69555;53.014;8.886;2024-03-02T00:40:58;31.50;;;17.25;;
34144;SDS011;69555;53.014;8.886;2024-03-02T00:43:38;31.40;;;16.85;;
34144;SDS011;69555;53.014;8.886;2024-03-02T00:46:20;34.05;;;17.95;;
34144;SDS011;69555;53.014;8.886;2024-03-02T00:48:48;30.77;;;17.92;;
34144;SDS011;69555;53.014;8.886;2024-03-02T00:51:21;31.63;;;17.90;;
34144;SDS011;69555;53.014;8.886;2024-03-02T00:53:49;27.43;;;16.13;;
34144;SDS011;69555;53.014;8.886;2024-03-02T00:56:17;33.13;;;17.70;;
34144;SDS011;69555;53.014;8.886;2024-03-02T00:58:43;32.55;;;17.42;;
34144;SDS011;69555;53.014;8.886;2024-03-02T01:01:10;27.90;;;15.80;;
34144;SDS011;69555;53.014;8.886;2024-03-02T01:03:37;33.03;;;17.63;;
34144;SDS011;69555;53.014;8.886;2024-03-02T01:06:05;28.92;;;16.50;;
34144;SDS011;69555;53.014;8.886;2024-03-02T01:08:33;30.80;;;16.97;;
34144;SDS011;69555;53.014;8.886;2024-03-02T01:11:01;26.77;;;16.88;;
34144;SDS011;69555;53.014;8.886;2024-03-02T01:13:28;30.25;;;17.48;;
34144;SDS011;69555;53.014;8.886;2024-03-02T01:15:55;29.23;;;16.02;;
34144;SDS011;69555;53.014;8.886;2024-03-02T01:18:22;28.30;;;16.67;;
34144;SDS011;69555;53.014;8.886;2024-03-02T01:20:50;29.45;;;16.60;;
34144;SDS011;69555;53.014;8.886;2024-03-02T01:23:18;27.23;;;16.50;;
34144;SDS011;69555;53.014;8.886;2024-03-02T01:25:46;24.98;;;15.80;;
34144;SDS011;69555;53.014;8.886;2024-03-02T01:28:14;27.23;;;15.43;;
34144;SDS011;69555;53.014;8.886;2024-03-02T01:30:41;30.63;;;17.75;;
34144;SDS011;69555;53.014;8.886;2024-03-02T01:33:11;29.35;;;16.17;;
34144;SDS011;69555;53.014;8.886;2024-03-02T01:35:36;30.45;;;16.80;;
34144;SDS011;69555;53.014;8.886;2024-03-02T01:38:02;33.92;;;18.55;;
34144;SDS011;69555;53.014;8.886;2024-03-02T01:40:28;26.38;;;15.57;;
34144;SDS011;69555;53.014;8.886;2024-03-02T01:42:55;28.38;;;16.20;;
34144;SDS011;69555;53.014;8.886;2024-03-02T01:45:24;26.83;;;15.77;;
34144;SDS011;69555;53.014;8.886;2024-03-02T01:47:51;28.70;;;16.45;;
34144;SDS011;69555;53.014;8.886;2024-03-02T01:50:27;27.95;;;15.68;;
34144;SDS011;69555;53.014;8.886;2024-03-02T01:52:55;26.42;;;15.60;;
34144;SDS011;69555;53.014;8.886;2024-03-02T01:55:21;30.15;;;16.48;;
34144;SDS011;69555;53.014;8.886;2024-03-02T01:57:48;23.48;;;13.73;;
34144;SDS011;69555;53.014;8.886;2024-03-02T02:00:16;27.00;;;15.50;;
34144;SDS011;69555;53.014;8.886;2024-03-02T02:02:44;28.48;;;15.77;;
34144;SDS011;69555;53.014;8.886;2024-03-02T02:05:10;25.65;;;14.88;;
34144;SDS011;69555;53.014;8.886;2024-03-02T02:07:36;27.83;;;15.13;;
34144;SDS011;69555;53.014;8.886;2024-03-02T02:10:03;25.40;;;14.80;;
34144;SDS011;69555;53.014;8.886;2024-03-02T02:12:30;25.75;;;14.88;;
34144;SDS011;69555;53.014;8.886;2024-03-02T02:14:57;28.73;;;15.35;;
34144;SDS011;69555;53.014;8.886;2024-03-02T02:17:24;29.83;;;15.55;;
34144;SDS011;69555;53.014;8.886;2024-03-02T02:19:50;27.15;;;15.35;;
34144;SDS011;69555;53.014;8.886;2024-03-02T02:22:17;27.75;;;15.75;;
34144;SDS011;69555;53.014;8.886;2024-03-02T02:24:42;25.70;;;15.88;;
34144;SDS011;69555;53.014;8.886;2024-03-02T02:27:08;32.95;;;18.80;;
34144;SDS011;69555;53.014;8.886;2024-03-02T02:29:35;30.52;;;17.10;;
34144;SDS011;69555;53.014;8.886;2024-03-02T02:32:02;33.17;;;17.63;;
34144;SDS011;69555;53.014;8.886;2024-03-02T02:34:29;31.98;;;17.40;;
34144;SDS011;69555;53.014;8.886;2024-03-02T02:36:56;28.90;;;17.58;;
34144;SDS011;69555;53.014;8.886;2024-03-02T02:39:22;38.25;;;18.98;;
34144;SDS011;69555;53.014;8.886;2024-03-02T02:41:49;28.42;;;17.55;;
34144;SDS011;69555;53.014;8.886;2024-03-02T02:44:16;30.47;;;18.20;;
34144;SDS011;69555;53.014;8.886;2024-03-02T02:46:41;31.27;;;18.05;;
34144;SDS011;69555;53.014;8.886;2024-03-02T02:49:07;36.58;;;19.90;;
34144;SDS011;69555;53.014;8.886;2024-03-02T02:51:33;36.08;;;19.58;;
34144;SDS011;69555;53.014;8.886;2024-03-02T02:54:00;32.17;;;18.80;;
34144;SDS011;69555;53.014;8.886;2024-03-02T02:56:26;33.65;;;18.95;;
34144;SDS011;69555;53.014;8.886;2024-03-02T02:58:51;33.70;;;19.10;;
34144;SDS011;69555;53.014;8.886;2024-03-02T03:01:18;32.10;;;18.00;;
34144;SDS011;69555;53.014;8.886;2024-03-02T03:03:45;36.13;;;20.08;;
34144;SDS011;69555;53.014;8.886;2024-03-02T03:06:13;34.25;;;20.85;;
34144;SDS011;69555;53.014;8.886;2024-03-02T03:08:39;31.85;;;18.50;;
34144;SDS011;69555;53.014;8.886;2024-03-02T03:11:06;35.25;;;19.27;;
34144;SDS011;69555;53.014;8.886;2024-03-02T03:13:31;34.53;;;19.30;;
34144;SDS011;69555;53.014;8.886;2024-03-02T03:15:57;33.85;;;19.58;;
34144;SDS011;69555;53.014;8.886;2024-03-02T03:18:24;38.55;;;20.25;;
34144;SDS011;69555;53.014;8.886;2024-03-02T03:20:51;35.58;;;20.02;;
34144;SDS011;69555;53.014;8.886;2024-03-02T03:23:17;36.90;;;20.15;;
34144;SDS011;69555;53.014;8.886;2024-03-02T03:25:43;36.15;;;20.48;;
34144;SDS011;69555;53.014;8.886;2024-03-02T03:28:10;36.38;;;20.83;;
34144;SDS011;69555;53.014;8.886;2024-03-02T03:30:41;35.80;;;19.52;;
34144;SDS011;69555;53.014;8.886;2024-03-02T03:33:08;37.53;;;19.75;;
34144;SDS011;69555;53.014;8.886;2024-03-02T03:35:35;33.67;;;18.77;;
34144;SDS011;69555;53.014;8.886;2024-03-02T03:38:02;39.85;;;22.13;;
34144;SDS011;69555;53.014;8.886;2024-03-02T03:40:29;34.25;;;20.05;;
34144;SDS011;69555;53.014;8.886;2024-03-02T03:42:56;35.13;;;20.27;;
34144;SDS011;69555;53.014;8.886;2024-03-02T03:45:22;41.05;;;21.30;;
34144;SDS011;69555;53.014;8.886;2024-03-02T03:47:51;40.20;;;21.38;;
34144;SDS011;69555;53.014;8.886;2024-03-02T03:50:18;37.65;;;20.27;;
34144;SDS011;69555;53.014;8.886;2024-03-02T03:52:46;36.78;;;20.50;;
34144;SDS011;69555;53.014;8.886;2024-03-02T03:55:12;33.85;;;19.80;;
34144;SDS011;69555;53.014;8.886;2024-03-02T03:57:38;30.98;;;18.10;;
34144;SDS011;69555;53.014;8.886;2024-03-02T04:00:04;33.85;;;19.00;;
34144;SDS011;69555;53.014;8.886;2024-03-02T04:02:31;30.55;;;18.25;;
34144;SDS011;69555;53.014;8.886;2024-03-02T04:04:57;31.80;;;19.17;;
34144;SDS011;69555;53.014;8.886;2024-03-02T04:07:24;32.60;;;19.33;;
34144;SDS011;69555;53.014;8.886;2024-03-02T04:09:50;33.58;;;18.27;;
34144;SDS011;69555;53.014;8.886;2024-03-02T04:12:17;29.17;;;18.08;;
34144;SDS011;69555;53.014;8.886;2024-03-02T04:14:44;29.85;;;17.40;;
34144;SDS011;69555;53.014;8.886;2024-03-02T04:17:11;36.08;;;19.10;;
34144;SDS011;69555;53.014;8.886;2024-03-02T04:19:38;30.55;;;17.95;;
34144;SDS011;69555;53.014;8.886;2024-03-02T04:22:05;31.42;;;16.27;;
34144;SDS011;69555;53.014;8.886;2024-03-02T04:24:30;27.05;;;15.95;;
34144;SDS011;69555;53.014;8.886;2024-03-02T04:26:57;30.67;;;15.60;;
34144;SDS011;69555;53.014;8.886;2024-03-02T04:29:22;30.85;;;16.42;;
34144;SDS011;69555;53.014;8.886;2024-03-02T04:31:49;27.40;;;15.82;;
34144;SDS011;69555;53.014;8.886;2024-03-02T04:34:15;27.80;;;16.60;;
34144;SDS011;69555;53.014;8.886;2024-03-02T04:36:42;28.02;;;15.63;;
34144;SDS011;69555;53.014;8.886;2024-03-02T04:39:08;26.63;;;17.05;;
34144;SDS011;69555;53.014;8.886;2024-03-02T04:41:35;25.73;;;15.43;;
34144;SDS011;69555;53.014;8.886;2024-03-02T04:44:02;23.23;;;13.27;;
34144;SDS011;69555;53.014;8.886;2024-03-02T04:46:29;27.35;;;14.23;;
34144;SDS011;69555;53.014;8.886;2024-03-02T04:48:55;27.65;;;14.15;;
34144;SDS011;69555;53.014;8.886;2024-03-02T04:51:23;23.30;;;15.18;;
34144;SDS011;69555;53.014;8.886;2024-03-02T04:53:50;22.50;;;14.13;;
34144;SDS011;69555;53.014;8.886;2024-03-02T04:56:17;24.10;;;15.00;;
34144;SDS011;69555;53.014;8.886;2024-03-02T04:58:49;24.50;;;14.40;;
34144;SDS011;69555;53.014;8.886;2024-03-02T05:01:15;23.85;;;14.43;;
34144;SDS011;69555;53.014;8.886;2024-03-02T05:03:43;22.17;;;14.00;;
34144;SDS011;69555;53.014;8.886;2024-03-02T05:06:11;23.60;;;14.10;;
34144;SDS011;69555;53.014;8.886;2024-03-02T05:08:38;22.48;;;13.27;;
34144;SDS011;69555;53.014;8.886;2024-03-02T05:11:04;24.08;;;14.48;;
34144;SDS011;69555;53.014;8.886;2024-03-02T05:13:49;25.02;;;14.85;;
34144;SDS011;69555;53.014;8.886;2024-03-02T05:16:15;30.15;;;15.77;;
34144;SDS011;69555;53.014;8.886;2024-03-02T05:18:42;20.83;;;14.57;;
34144;SDS011;69555;53.014;8.886;2024-03-02T05:21:08;28.10;;;16.48;;
34144;SDS011;69555;53.014;8.886;2024-03-02T05:23:35;26.67;;;15.27;;
34144;SDS011;69555;53.014;8.886;2024-03-02T05:26:03;23.42;;;13.88;;
34144;SDS011;69555;53.014;8.886;2024-03-02T05:28:30;20.67;;;12.93;;
34144;SDS011;69555;53.014;8.886;2024-03-02T05:30:56;24.13;;;15.40;;
34144;SDS011;69555;53.014;8.886;2024-03-02T05:33:23;26.67;;;16.20;;
34144;SDS011;69555;53.014;8.886;2024-03-02T05:35:49;25.83;;;14.80;;
34144;SDS011;69555;53.014;8.886;2024-03-02T05:38:16;25.90;;;15.77;;
34144;SDS011;69555;53.014;8.886;2024-03-02T05:40:41;26.63;;;14.75;;
34144;SDS011;69555;53.014;8.886;2024-03-02T05:43:08;33.33;;;16.48;;
34144;SDS011;69555;53.014;8.886;2024-03-02T05:45:35;23.75;;;14.40;;
34144;SDS011;69555;53.014;8.886;2024-03-02T05:48:03;26.13;;;16.48;;
34144;SDS011;69555;53.014;8.886;2024-03-02T05:50:29;27.20;;;15.85;;
34144;SDS011;69555;53.014;8.886;2024-03-02T05:52:56;23.58;;;14.68;;
34144;SDS011;69555;53.014;8.886;2024-03-02T05:55:22;23.45;;;15.60;;
34144;SDS011;69555;53.014;8.886;2024-03-02T05:57:49;23.77;;;14.80;;
34144;SDS011;69555;53.014;8.886;2024-03-02T06:00:25;28.25;;;15.70;;
34144;SDS011;69555;53.014;8.886;2024-03-02T06:02:52;33.17;;;16.75;;
34144;SDS011;69555;53.014;8.886;2024-03-02T06:05:19;29.67;;;17.08;;
34144;SDS011;69555;53.014;8.886;2024-03-02T06:07:46;27.85;;;16.02;;
34144;SDS011;69555;53.014;8.886;2024-03-02T06:10:13;30.48;;;16.20;;
34144;SDS011;69555;53.014;8.886;2024-03-02T06:12:40;25.73;;;15.95;;
34144;SDS011;69555;53.014;8.886;2024-03-02T06:15:07;31.20;;;16.30;;
34144;SDS011;69555;53.014;8.886;2024-03-02T06:17:34;28.80;;;16.45;;
34144;SDS011;69555;53.014;8.886;2024-03-02T06:20:02;29.10;;;14.98;;
34144;SDS011;69555;53.014;8.886;2024-03-02T06:22:29;26.73;;;15.82;;
34144;SDS011;69555;53.014;8.886;2024-03-02T06:24:56;29.00;;;16.02;;
34144;SDS011;69555;53.014;8.886;2024-03-02T06:27:21;31.10;;;15.60;;
34144;SDS011;69555;53.014;8.886;2024-03-02T06:29:47;28.90;;;16.27;;
34144;SDS011;69555;53.014;8.886;2024-03-02T06:32:14;26.45;;;15.55;;
34144;SDS011;69555;53.014;8.886;2024-03-02T06:34:41;25.40;;;15.90;;
34144;SDS011;69555;53.014;8.886;2024-03-02T06:37:07;28.90;;;17.10;;
34144;SDS011;69555;53.014;8.886;2024-03-02T06:39:34;29.75;;;16.27;;
34144;SDS011;69555;53.014;8.886;2024-03-02T06:42:00;27.35;;;16.00;;
34144;SDS011;69555;53.014;8.886;2024-03-02T06:44:26;24.65;;;15.13;;
34144;SDS011;69555;53.014;8.886;2024-03-02T06:46:53;30.17;;;16.13;;
34144;SDS011;69555;53.014;8.886;2024-03-02T06:49:20;27.15;;;15.60;;
34144;SDS011;69555;53.014;8.886;2024-03-02T06:51:47;26.40;;;15.55;;
34144;SDS011;69555;53.014;8.886;2024-03-02T06:54:13;27.00;;;15.90;;
34144;SDS011;69555;53.014;8.886;2024-03-02T06:56:41;31.33;;;17.27;;
34144;SDS011;69555;53.014;8.886;2024-03-02T06:59:08;28.20;;;16.63;;
34144;SDS011;69555;53.014;8.886;2024-03-02T07:01:34;29.02;;;17.20;;
34144;SDS011;69555;53.014;8.886;2024-03-02T07:04:01;26.85;;;16.10;;
34144;SDS011;69555;53.014;8.886;2024-03-02T07:06:26;29.30;;;16.35;;
34144;SDS011;69555;53.014;8.886;2024-03-02T07:08:52;26.25;;;16.45;;
34144;SDS011;69555;53.014;8.886;2024-03-02T07:11:17;28.00;;;15.82;;
34144;SDS011;69555;53.014;8.886;2024-03-02T07:13:42;27.40;;;16.25;;
34144;SDS011;69555;53.014;8.886;2024-03-02T07:16:08;26.77;;;16.05;;
34144;SDS011;69555;53.014;8.886;2024-03-02T07:18:54;29.67;;;15.45;;
34144;SDS011;69555;53.014;8.886;2024-03-02T07:21:22;24.33;;;15.95;;
34144;SDS011;69555;53.014;8.886;2024-03-02T07:23:49;28.52;;;15.77;;
34144;SDS011;69555;53.014;8.886;2024-03-02T07:26:15;25.02;;;15.45;;
34144;SDS011;69555;53.014;8.886;2024-03-02T07:28:41;28.83;;;15.65;;
34144;SDS011;69555;53.014;8.886;2024-03-02T07:31:07;24.45;;;15.57;;
34144;SDS011;69555;53.014;8.886;2024-03-02T07:33:33;26.63;;;15.75;;
34144;SDS011;69555;53.014;8.886;2024-03-02T07:35:59;24.58;;;14.73;;
34144;SDS011;69555;53.014;8.886;2024-03-02T07:38:28;25.10;;;14.23;;
34144;SDS011;69555;53.014;8.886;2024-03-02T07:40:54;23.17;;;13.48;;
34144;SDS011;69555;53.014;8.886;2024-03-02T07:43:20;23.10;;;13.60;;
34144;SDS011;69555;53.014;8.886;2024-03-02T07:45:46;21.80;;;14.32;;
34144;SDS011;69555;53.014;8.886;2024-03-02T07:48:12;23.88;;;14.35;;
34144;SDS011;69555;53.014;8.886;2024-03-02T07:50:41;23.30;;;13.77;;
34144;SDS011;69555;53.014;8.886;2024-03-02T07:53:09;24.88;;;14.48;;
34144;SDS011;69555;53.014;8.886;2024-03-02T07:55:34;25.02;;;14.75;;
34144;SDS011;69555;53.014;8.886;2024-03-02T07:58:01;26.33;;;15.05;;
34144;SDS011;69555;53.014;8.886;2024-03-02T08:00:26;27.95;;;15.43;;
34144;SDS011;69555;53.014;8.886;2024-03-02T08:02:52;30.08;;;16.30;;
34144;SDS011;69555;53.014;8.886;2024-03-02T08:05:19;31.38;;;17.75;;
34144;SDS011;69555;53.014;8.886;2024-03-02T08:07:45;28.63;;;16.30;;
34144;SDS011;69555;53.014;8.886;2024-03-02T08:10:11;30.42;;;17.60;;
34144;SDS011;69555;53.014;8.886;2024-03-02T08:12:37;28.17;;;16.48;;
34144;SDS011;69555;53.014;8.886;2024-03-02T08:15:03;33.83;;;17.98;;
34144;SDS011;69555;53.014;8.886;2024-03-02T08:17:29;28.92;;;17.38;;
34144;SDS011;69555;53.014;8.886;2024-03-02T08:19:54;32.95;;;17.95;;
34144;SDS011;69555;53.014;8.886;2024-03-02T08:22:21;30.48;;;17.63;;
34144;SDS011;69555;53.014;8.886;2024-03-02T08:24:48;29.45;;;16.60;;
34144;SDS011;69555;53.014;8.886;2024-03-02T08:27:13;29.42;;;17.63;;
34144;SDS011;69555;53.014;8.886;2024-03-02T08:29:39;30.45;;;16.63;;
34144;SDS011;69555;53.014;8.886;2024-03-02T08:32:06;30.50;;;18.00;;
34144;SDS011;69555;53.014;8.886;2024-03-02T08:34:32;28.08;;;16.98;;
34144;SDS011;69555;53.014;8.886;2024-03-02T08:37:00;30.55;;;17.77;;
34144;SDS011;69555;53.014;8.886;2024-03-02T08:39:25;30.25;;;17.13;;
34144;SDS011;69555;53.014;8.886;2024-03-02T08:41:51;33.45;;;18.17;;
34144;SDS011;69555;53.014;8.886;2024-03-02T08:44:16;32.83;;;17.85;;
34144;SDS011;69555;53.014;8.886;2024-03-02T08:46:42;29.17;;;16.85;;
34144;SDS011;69555;53.014;8.886;2024-03-02T08:49:08;31.55;;;18.13;;
34144;SDS011;69555;53.014;8.886;2024-03-02T08:51:35;25.92;;;16.00;;
34144;SDS011;69555;53.014;8.886;2024-03-02T08:54:02;26.90;;;15.95;;
34144;SDS011;69555;53.014;8.886;2024-03-02T08:56:30;26.65;;;15.15;;
34144;SDS011;69555;53.014;8.886;2024-03-02T08:58:57;29.23;;;16.48;;
34144;SDS011;69555;53.014;8.886;2024-03-02T09:01:23;27.42;;;15.98;;
34144;SDS011;69555;53.014;8.886;2024-03-02T09:03:48;31.42;;;15.73;;
34144;SDS011;69555;53.014;8.886;2024-03-02T09:06:14;27.05;;;15.10;;
34144;SDS011;69555;53.014;8.886;2024-03-02T09:08:43;24.90;;;15.07;;
34144;SDS011;69555;53.014;8.886;2024-03-02T09:11:10;27.40;;;15.68;;
34144;SDS011;69555;53.014;8.886;2024-03-02T09:13:36;21.38;;;14.52;;
34144;SDS011;69555;53.014;8.886;2024-03-02T09:16:04;24.20;;;14.50;;
34144;SDS011;69555;53.014;8.886;2024-03-02T09:18:30;25.50;;;14.93;;
34144;SDS011;69555;53.014;8.886;2024-03-02T09:20:55;23.45;;;15.07;;
34144;SDS011;69555;53.014;8.886;2024-03-02T09:23:22;22.92;;;13.73;;
34144;SDS011;69555;53.014;8.886;2024-03-02T09:25:49;27.27;;;14.23;;
34144;SDS011;69555;53.014;8.886;2024-03-02T09:28:20;22.08;;;14.35;;
34144;SDS011;69555;53.014;8.886;2024-03-02T09:30:45;24.48;;;13.57;;
34144;SDS011;69555;53.014;8.886;2024-03-02T09:33:11;20.55;;;13.32;;
34144;SDS011;69555;53.014;8.886;2024-03-02T09:35:36;21.83;;;13.88;;
34144;SDS011;69555;53.014;8.886;2024-03-02T09:38:01;20.70;;;13.82;;
34144;SDS011;69555;53.014;8.886;2024-03-02T09:40:29;24.67;;;13.70;;
34144;SDS011;69555;53.014;8.886;2024-03-02T09:42:55;21.13;;;13.35;;
34144;SDS011;69555;53.014;8.886;2024-03-02T09:45:22;26.75;;;13.43;;
34144;SDS011;69555;53.014;8.886;2024-03-02T09:47:49;21.17;;;12.65;;
34144;SDS011;69555;53.014;8.886;2024-03-02T09:50:15;24.08;;;12.75;;
34144;SDS011;69555;53.014;8.886;2024-03-02T09:52:48;21.63;;;12.65;;
34144;SDS011;69555;53.014;8.886;2024-03-02T09:55:16;22.35;;;13.45;;
34144;SDS011;69555;53.014;8.886;2024-03-02T09:57:43;20.20;;;12.93;;
34144;SDS011;69555;53.014;8.886;2024-03-02T10:00:08;21.50;;;12.27;;
34144;SDS011;69555;53.014;8.886;2024-03-02T10:02:39;20.05;;;12.38;;
34144;SDS011;69555;53.014;8.886;2024-03-02T10:05:11;20.85;;;13.13;;
34144;SDS011;69555;53.014;8.886;2024-03-02T10:07:39;18.33;;;11.48;;
34144;SDS011;69555;53.014;8.886;2024-03-02T10:10:16;21.48;;;12.38;;
34144;SDS011;69555;53.014;8.886;2024-03-02T10:12:43;22.73;;;13.00;;
34144;SDS011;69555;53.014;8.886;2024-03-02T10:15:08;24.52;;;11.55;;
34144;SDS011;69555;53.014;8.886;2024-03-02T10:17:34;21.48;;;12.75;;
34144;SDS011;69555;53.014;8.886;2024-03-02T10:20:04;20.73;;;11.68;;
34144;SDS011;69555;53.014;8.886;2024-03-02T10:22:54;19.52;;;11.73;;
34144;SDS011;69555;53.014;8.886;2024-03-02T10:25:29;22.23;;;12.27;;
34144;SDS011;69555;53.014;8.886;2024-03-02T10:27:59;17.90;;;11.55;;
34144;SDS011;69555;53.014;8.886;2024-03-02T10:30:26;19.63;;;12.02;;
34144;SDS011;69555;53.014;8.886;2024-03-02T10:32:52;21.33;;;11.93;;
34144;SDS011;69555;53.014;8.886;2024-03-02T10:35:19;22.23;;;11.63;;
34144;SDS011;69555;53.014;8.886;2024-03-02T10:37:47;17.25;;;11.32;;
34144;SDS011;69555;53.014;8.886;2024-03-02T10:40:14;20.20;;;12.40;;
34144;SDS011;69555;53.014;8.886;2024-03-02T10:42:41;21.85;;;13.70;;
34144;SDS011;69555;53.014;8.886;2024-03-02T10:45:08;21.98;;;12.63;;
34144;SDS011;69555;53.014;8.886;2024-03-02T10:47:35;22.33;;;12.95;;
34144;SDS011;69555;53.014;8.886;2024-03-02T10:50:02;17.70;;;11.07;;
34144;SDS011;69555;53.014;8.886;2024-03-02T10:52:37;17.70;;;11.27;;
34144;SDS011;69555;53.014;8.886;2024-03-02T10:55:09;16.15;;;8.70;;
34144;SDS011;69555;53.014;8.886;2024-03-02T11:00:18;15.07;;;9.57;;
34144;SDS011;69555;53.014;8.886;2024-03-02T11:02:50;12.77;;;7.85;;
34144;SDS011;69555;53.014;8.886;2024-03-02T11:05:20;17.13;;;8.98;;
34144;SDS011;69555;53.014;8.886;2024-03-02T11:07:53;16.02;;;9.15;;
34144;SDS011;69555;53.014;8.886;2024-03-02T11:10:26;14.68;;;8.35;;
34144;SDS011;69555;53.014;8.886;2024-03-02T11:13:00;13.65;;;7.80;;
34144;SDS011;69555;53.014;8.886;2024-03-02T11:15:29;12.95;;;7.55;;
34144;SDS011;69555;53.014;8.886;2024-03-02T11:17:55;14.00;;;8.43;;
34144;SDS011;69555;53.014;8.886;2024-03-02T11:20:22;12.55;;;8.48;;
34144;SDS011;69555;53.014;8.886;2024-03-02T11:22:48;12.75;;;8.40;;
34144;SDS011;69555;53.014;8.886;2024-03-02T11:25:27;12.68;;;8.95;;
34144;SDS011;69555;53.014;8.886;2024-03-02T11:33:08;12.30;;;7.03;;
34144;SDS011;69555;53.014;8.886;2024-03-02T11:35:46;10.07;;;6.88;;
34144;SDS011;69555;53.014;8.886;2024-03-02T11:38:14;13.98;;;7.13;;
34144;SDS011;69555;53.014;8.886;2024-03-02T11:40:40;14.27;;;7.72;;
34144;SDS011;69555;53.014;8.886;2024-03-02T11:43:06;12.05;;;7.40;;
34144;SDS011;69555;53.014;8.886;2024-03-02T11:45:35;14.93;;;7.60;;
34144;SDS011;69555;53.014;8.886;2024-03-02T11:48:06;12.85;;;7.53;;
34144;SDS011;69555;53.014;8.886;2024-03-02T11:50:39;9.02;;;6.72;;
34144;SDS011;69555;53.014;8.886;2024-03-02T11:53:08;12.55;;;7.50;;
34144;SDS011;69555;53.014;8.886;2024-03-02T11:55:35;11.97;;;6.77;;
34144;SDS011;69555;53.014;8.886;2024-03-02T11:58:05;9.77;;;5.63;;
34144;SDS011;69555;53.014;8.886;2024-03-02T12:00:31;11.00;;;6.38;;
34144;SDS011;69555;53.014;8.886;2024-03-02T12:03:07;12.35;;;7.45;;
34144;SDS011;69555;53.014;8.886;2024-03-02T12:05:34;12.43;;;6.90;;
34144;SDS011;69555;53.014;8.886;2024-03-02T12:08:01;12.25;;;7.10;;
34144;SDS011;69555;53.014;8.886;2024-03-02T12:10:30;12.57;;;6.85;;
34144;SDS011;69555;53.014;8.886;2024-03-02T12:13:06;10.55;;;6.57;;
34144;SDS011;69555;53.014;8.886;2024-03-02T12:15:35;11.98;;;6.43;;
34144;SDS011;69555;53.014;8.886;2024-03-02T12:18:02;11.77;;;6.45;;
34144;SDS011;69555;53.014;8.886;2024-03-02T12:20:28;8.82;;;6.15;;
34144;SDS011;69555;53.014;8.886;2024-03-02T12:22:55;10.45;;;6.70;;
34144;SDS011;69555;53.014;8.886;2024-03-02T12:25:24;11.35;;;6.55;;
34144;SDS011;69555;53.014;8.886;2024-03-02T12:27:51;10.13;;;6.70;;
34144;SDS011;69555;53.014;8.886;2024-03-02T12:30:19;10.80;;;7.05;;
34144;SDS011;69555;53.014;8.886;2024-03-02T12:32:46;10.55;;;7.07;;
34144;SDS011;69555;53.014;8.886;2024-03-02T12:35:13;9.50;;;6.13;;
34144;SDS011;69555;53.014;8.886;2024-03-02T12:37:44;8.50;;;5.47;;
34144;SDS011;69555;53.014;8.886;2024-03-02T12:40:13;10.00;;;5.90;;
34144;SDS011;69555;53.014;8.886;2024-03-02T12:42:40;10.52;;;6.85;;
34144;SDS011;69555;53.014;8.886;2024-03-02T12:45:09;9.93;;;6.75;;
34144;SDS011;69555;53.014;8.886;2024-03-02T12:47:35;11.13;;;6.97;;
34144;SDS011;69555;53.014;8.886;2024-03-02T12:50:01;10.43;;;6.88;;
34144;SDS011;69555;53.014;8.886;2024-03-02T12:52:29;10.52;;;6.05;;
34144;SDS011;69555;53.014;8.886;2024-03-02T12:54:55;11.68;;;7.05;;
34144;SDS011;69555;53.014;8.886;2024-03-02T12:57:31;11.07;;;7.10;;
34144;SDS011;69555;53.014;8.886;2024-03-02T13:00:01;13.32;;;7.25;;
34144;SDS011;69555;53.014;8.886;2024-03-02T13:02:35;11.13;;;7.22;;
34144;SDS011;69555;53.014;8.886;2024-03-02T13:05:02;12.32;;;7.25;;
34144;SDS011;69555;53.014;8.886;2024-03-02T13:07:28;9.80;;;6.78;;
34144;SDS011;69555;53.014;8.886;2024-03-02T13:09:55;13.30;;;7.55;;
34144;SDS011;69555;53.014;8.886;2024-03-02T13:12:23;17.52;;;7.13;;
34144;SDS011;69555;53.014;8.886;2024-03-02T13:14:50;14.57;;;6.88;;
34144;SDS011;69555;53.014;8.886;2024-03-02T13:17:17;11.80;;;6.28;;
34144;SDS011;69555;53.014;8.886;2024-03-02T13:19:56;12.07;;;6.78;;
34144;SDS011;69555;53.014;8.886;2024-03-02T13:22:22;10.15;;;6.55;;
34144;SDS011;69555;53.014;8.886;2024-03-02T13:24:52;13.75;;;6.78;;
34144;SDS011;69555;53.014;8.886;2024-03-02T13:27:21;12.82;;;7.25;;
34144;SDS011;69555;53.014;8.886;2024-03-02T13:29:47;10.20;;;6.55;;
34144;SDS011;69555;53.014;8.886;2024-03-02T13:32:16;11.77;;;7.50;;
34144;SDS011;69555;53.014;8.886;2024-03-02T13:34:43;11.57;;;6.68;;
34144;SDS011;69555;53.014;8.886;2024-03-02T13:37:08;13.13;;;7.05;;
34144;SDS011;69555;53.014;8.886;2024-03-02T13:39:35;11.48;;;6.57;;
34144;SDS011;69555;53.014;8.886;2024-03-02T13:42:09;11.52;;;6.65;;
34144;SDS011;69555;53.014;8.886;2024-03-02T13:44:36;10.68;;;6.50;;
34144;SDS011;69555;53.014;8.886;2024-03-02T13:47:02;9.85;;;6.13;;
34144;SDS011;69555;53.014;8.886;2024-03-02T13:49:28;11.60;;;6.78;;
34144;SDS011;69555;53.014;8.886;2024-03-02T13:51:59;9.77;;;6.10;;
34144;SDS011;69555;53.014;8.886;2024-03-02T13:54:27;11.40;;;6.20;;
34144;SDS011;69555;53.014;8.886;2024-03-02T13:56:53;10.13;;;5.25;;
34144;SDS011;69555;53.014;8.886;2024-03-02T13:59:18;10.23;;;5.97;;
34144;SDS011;69555;53.014;8.886;2024-03-02T14:01:45;11.30;;;6.13;;
34144;SDS011;69555;53.014;8.886;2024-03-02T14:04:11;9.02;;;5.88;;
34144;SDS011;69555;53.014;8.886;2024-03-02T14:06:37;12.82;;;5.43;;
34144;SDS011;69555;53.014;8.886;2024-03-02T14:09:03;8.60;;;5.40;;
34144;SDS011;69555;53.014;8.886;2024-03-02T14:11:28;8.98;;;5.22;;
34144;SDS011;69555;53.014;8.886;2024-03-02T14:13:53;8.52;;;5.35;;
34144;SDS011;69555;53.014;8.886;2024-03-02T14:16:20;7.97;;;5.47;;
34144;SDS011;69555;53.014;8.886;2024-03-02T14:18:46;9.02;;;5.28;;
34144;SDS011;69555;53.014;8.886;2024-03-02T14:21:11;10.75;;;5.50;;
34144;SDS011;69555;53.014;8.886;2024-03-02T14:23:37;7.50;;;5.18;;
34144;SDS011;69555;53.014;8.886;2024-03-02T14:26:02;10.25;;;6.05;;
34144;SDS011;69555;53.014;8.886;2024-03-02T14:28:28;10.75;;;5.72;;
34144;SDS011;69555;53.014;8.886;2024-03-02T14:30:53;9.00;;;5.32;;
34144;SDS011;69555;53.014;8.886;2024-03-02T14:33:19;7.95;;;5.05;;
34144;SDS011;69555;53.014;8.886;2024-03-02T14:35:45;9.20;;;4.88;;
34144;SDS011;69555;53.014;8.886;2024-03-02T14:38:11;9.95;;;5.25;;
34144;SDS011;69555;53.014;8.886;2024-03-02T14:40:37;10.77;;;5.10;;
34144;SDS011;69555;53.014;8.886;2024-03-02T14:43:03;8.30;;;5.03;;
34144;SDS011;69555;53.014;8.886;2024-03-02T14:45:29;7.55;;;5.20;;